sensor_id;sensor_type;location;lat;lon;timestamp;P1;durP1;ratioP1;P2;durP2;ratioP2
5608;SDS011;2826;51.354;9.588;2022-12-31T00:00:44;13.13;;;8.70;;
5608;SDS011;2826;51.354;9.588;2022-12-31T00:03:11;10.50;;;8.77;;
5608;SDS011;2826;51.354;9.588;2022-12-31T00:05:38;11.20;;;9.00;;
5608;SDS011;2826;51.354;9.588;2022-12-31T00:08:06;9.27;;;6.33;;
5608;SDS011;2826;51.354;9.588;2022-12-31T00:10:33;9.33;;;7.73;;
5608;SDS011;2826;51.354;9.588;2022-12-31T00:13:06;12.77;;;8.57;;
5608;SDS011;2826;51.354;9.588;2022-12-31T00:15:33;12.00;;;8.37;;
5608;SDS011;2826;51.354;9.588;2022-12-31T00:18:00;10.00;;;7.00;;
5608;SDS011;2826;51.354;9.588;2022-12-31T00:20:27;9.30;;;7.60;;
5608;SDS011;2826;51.354;9.588;2022-12-31T00:22:54;9.73;;;6.70;;
5608;SDS011;2826;51.354;9.588;2022-12-31T00:25:22;9.60;;;7.63;;
5608;SDS011;2826;51.354;9.588;2022-12-31T00:27:49;9.50;;;6.90;;
5608;SDS011;2826;51.354;9.588;2022-12-31T00:30:16;8.93;;;7.23;;
5608;SDS011;2826;51.354;9.588;2022-12-31T00:32:42;13.43;;;6.90;;
5608;SDS011;2826;51.354;9.588;2022-12-31T00:35:09;7.27;;;5.80;;
5608;SDS011;2826;51.354;9.588;2022-12-31T00:37:36;9.80;;;6.70;;
5608;SDS011;2826;51.354;9.588;2022-12-31T00:40:03;7.07;;;5.60;;
5608;SDS011;2826;51.354;9.588;2022-12-31T00:42:32;13.30;;;6.20;;
5608;SDS011;2826;51.354;9.588;2022-12-31T00:44:59;9.83;;;6.70;;
5608;SDS011;2826;51.354;9.588;2022-12-31T00:47:25;6.30;;;5.03;;
5608;SDS011;2826;51.354;9.588;2022-12-31T00:49:52;5.03;;;4.50;;
5608;SDS011;2826;51.354;9.588;2022-12-31T00:52:18;6.20;;;5.10;;
5608;SDS011;2826;51.354;9.588;2022-12-31T00:54:45;5.90;;;5.23;;
5608;SDS011;2826;51.354;9.588;2022-12-31T00:57:12;5.97;;;4.90;;
5608;SDS011;2826;51.354;9.588;2022-12-31T00:59:40;5.70;;;4.80;;
5608;SDS011;2826;51.354;9.588;2022-12-31T01:02:07;4.80;;;3.73;;
5608;SDS011;2826;51.354;9.588;2022-12-31T01:04:34;6.73;;;4.70;;
5608;SDS011;2826;51.354;9.588;2022-12-31T01:07:00;7.30;;;3.80;;
5608;SDS011;2826;51.354;9.588;2022-12-31T01:09:27;4.77;;;3.73;;
5608;SDS011;2826;51.354;9.588;2022-12-31T01:11:54;5.50;;;3.83;;
5608;SDS011;2826;51.354;9.588;2022-12-31T01:14:20;4.70;;;3.33;;
5608;SDS011;2826;51.354;9.588;2022-12-31T01:16:50;2.63;;;2.43;;
5608;SDS011;2826;51.354;9.588;2022-12-31T01:19:19;2.47;;;2.27;;
5608;SDS011;2826;51.354;9.588;2022-12-31T01:21:47;3.07;;;2.80;;
5608;SDS011;2826;51.354;9.588;2022-12-31T01:24:15;2.43;;;2.20;;
5608;SDS011;2826;51.354;9.588;2022-12-31T01:26:43;2.90;;;2.30;;
5608;SDS011;2826;51.354;9.588;2022-12-31T01:29:10;1.53;;;1.43;;
5608;SDS011;2826;51.354;9.588;2022-12-31T01:31:37;1.90;;;1.80;;
5608;SDS011;2826;51.354;9.588;2022-12-31T01:34:06;2.33;;;2.00;;
5608;SDS011;2826;51.354;9.588;2022-12-31T01:36:34;2.03;;;1.93;;
5608;SDS011;2826;51.354;9.588;2022-12-31T01:39:03;2.33;;;1.80;;
5608;SDS011;2826;51.354;9.588;2022-12-31T01:41:32;1.57;;;1.47;;
5608;SDS011;2826;51.354;9.588;2022-12-31T01:44:01;2.10;;;2.00;;
5608;SDS011;2826;51.354;9.588;2022-12-31T01:46:50;1.80;;;1.70;;
5608;SDS011;2826;51.354;9.588;2022-12-31T01:49:21;1.57;;;1.47;;
5608;SDS011;2826;51.354;9.588;2022-12-31T01:51:52;1.80;;;1.70;;
5608;SDS011;2826;51.354;9.588;2022-12-31T01:54:22;3.20;;;1.50;;
5608;SDS011;2826;51.354;9.588;2022-12-31T01:56:51;1.60;;;1.50;;
5608;SDS011;2826;51.354;9.588;2022-12-31T01:59:19;1.83;;;1.73;;
5608;SDS011;2826;51.354;9.588;2022-12-31T02:01:47;1.70;;;1.60;;
5608;SDS011;2826;51.354;9.588;2022-12-31T02:04:18;2.03;;;1.77;;
5608;SDS011;2826;51.354;9.588;2022-12-31T02:06:50;1.33;;;1.23;;
5608;SDS011;2826;51.354;9.588;2022-12-31T02:09:21;1.60;;;1.50;;
5608;SDS011;2826;51.354;9.588;2022-12-31T02:11:48;1.60;;;1.50;;
5608;SDS011;2826;51.354;9.588;2022-12-31T02:14:16;2.10;;;1.90;;
5608;SDS011;2826;51.354;9.588;2022-12-31T02:16:48;1.60;;;1.50;;
5608;SDS011;2826;51.354;9.588;2022-12-31T02:19:31;1.93;;;1.83;;
5608;SDS011;2826;51.354;9.588;2022-12-31T02:22:17;1.80;;;1.70;;
5608;SDS011;2826;51.354;9.588;2022-12-31T02:27:52;2.37;;;2.17;;
5608;SDS011;2826;51.354;9.588;2022-12-31T02:30:32;1.90;;;1.80;;
5608;SDS011;2826;51.354;9.588;2022-12-31T02:33:03;1.70;;;1.60;;
5608;SDS011;2826;51.354;9.588;2022-12-31T02:35:36;3.40;;;1.77;;
5608;SDS011;2826;51.354;9.588;2022-12-31T02:38:12;2.20;;;1.70;;
5608;SDS011;2826;51.354;9.588;2022-12-31T02:40:42;1.50;;;1.40;;
5608;SDS011;2826;51.354;9.588;2022-12-31T02:43:09;1.60;;;1.50;;
5608;SDS011;2826;51.354;9.588;2022-12-31T02:45:38;1.70;;;1.60;;
5608;SDS011;2826;51.354;9.588;2022-12-31T02:48:20;1.70;;;1.60;;
5608;SDS011;2826;51.354;9.588;2022-12-31T02:50:58;3.73;;;1.50;;
5608;SDS011;2826;51.354;9.588;2022-12-31T02:53:40;1.40;;;1.30;;
5608;SDS011;2826;51.354;9.588;2022-12-31T02:56:24;1.77;;;1.63;;
5608;SDS011;2826;51.354;9.588;2022-12-31T02:58:58;1.60;;;1.50;;
5608;SDS011;2826;51.354;9.588;2022-12-31T03:01:49;1.43;;;1.33;;
5608;SDS011;2826;51.354;9.588;2022-12-31T03:04:40;2.33;;;1.50;;
5608;SDS011;2826;51.354;9.588;2022-12-31T03:07:10;2.60;;;1.63;;
5608;SDS011;2826;51.354;9.588;2022-12-31T03:09:40;2.80;;;1.30;;
5608;SDS011;2826;51.354;9.588;2022-12-31T03:12:08;1.50;;;1.40;;
5608;SDS011;2826;51.354;9.588;2022-12-31T03:14:53;2.17;;;2.00;;
5608;SDS011;2826;51.354;9.588;2022-12-31T03:17:22;2.90;;;1.60;;
5608;SDS011;2826;51.354;9.588;2022-12-31T03:19:50;4.40;;;1.90;;
5608;SDS011;2826;51.354;9.588;2022-12-31T03:22:35;1.73;;;1.63;;
5608;SDS011;2826;51.354;9.588;2022-12-31T03:25:05;1.60;;;1.43;;
5608;SDS011;2826;51.354;9.588;2022-12-31T03:27:51;5.53;;;1.60;;
5608;SDS011;2826;51.354;9.588;2022-12-31T03:30:19;1.43;;;1.33;;
5608;SDS011;2826;51.354;9.588;2022-12-31T03:32:48;1.33;;;1.23;;
5608;SDS011;2826;51.354;9.588;2022-12-31T03:35:16;1.47;;;1.37;;
5608;SDS011;2826;51.354;9.588;2022-12-31T03:37:45;1.40;;;1.30;;
5608;SDS011;2826;51.354;9.588;2022-12-31T03:40:14;1.70;;;1.60;;
5608;SDS011;2826;51.354;9.588;2022-12-31T03:42:41;1.67;;;1.57;;
5608;SDS011;2826;51.354;9.588;2022-12-31T03:45:09;6.70;;;1.53;;
5608;SDS011;2826;51.354;9.588;2022-12-31T03:47:37;3.10;;;1.60;;
5608;SDS011;2826;51.354;9.588;2022-12-31T03:50:05;1.43;;;1.33;;
5608;SDS011;2826;51.354;9.588;2022-12-31T03:52:34;1.30;;;1.20;;
5608;SDS011;2826;51.354;9.588;2022-12-31T03:55:01;1.30;;;1.20;;
5608;SDS011;2826;51.354;9.588;2022-12-31T03:57:28;1.30;;;1.20;;
5608;SDS011;2826;51.354;9.588;2022-12-31T03:59:55;1.40;;;1.30;;
5608;SDS011;2826;51.354;9.588;2022-12-31T04:02:23;2.50;;;1.20;;
5608;SDS011;2826;51.354;9.588;2022-12-31T04:04:50;3.77;;;1.37;;
5608;SDS011;2826;51.354;9.588;2022-12-31T04:07:19;2.10;;;1.20;;
5608;SDS011;2826;51.354;9.588;2022-12-31T04:09:46;1.83;;;1.00;;
5608;SDS011;2826;51.354;9.588;2022-12-31T04:12:12;0.80;;;0.80;;
5608;SDS011;2826;51.354;9.588;2022-12-31T04:14:39;2.40;;;1.00;;
5608;SDS011;2826;51.354;9.588;2022-12-31T04:17:06;1.67;;;1.10;;
5608;SDS011;2826;51.354;9.588;2022-12-31T04:19:33;0.80;;;0.80;;
5608;SDS011;2826;51.354;9.588;2022-12-31T04:21:59;2.17;;;1.07;;
5608;SDS011;2826;51.354;9.588;2022-12-31T04:24:29;0.80;;;0.73;;
5608;SDS011;2826;51.354;9.588;2022-12-31T04:26:56;2.30;;;0.90;;
5608;SDS011;2826;51.354;9.588;2022-12-31T04:29:23;0.90;;;0.80;;
5608;SDS011;2826;51.354;9.588;2022-12-31T04:31:49;1.37;;;0.97;;
5608;SDS011;2826;51.354;9.588;2022-12-31T04:34:16;1.10;;;1.00;;
5608;SDS011;2826;51.354;9.588;2022-12-31T04:36:43;1.10;;;1.00;;
5608;SDS011;2826;51.354;9.588;2022-12-31T04:39:10;1.10;;;0.80;;
5608;SDS011;2826;51.354;9.588;2022-12-31T04:41:38;2.80;;;0.80;;
5608;SDS011;2826;51.354;9.588;2022-12-31T04:44:05;0.80;;;0.80;;
5608;SDS011;2826;51.354;9.588;2022-12-31T04:46:32;0.83;;;0.83;;
5608;SDS011;2826;51.354;9.588;2022-12-31T04:48:59;1.37;;;1.10;;
5608;SDS011;2826;51.354;9.588;2022-12-31T04:51:26;1.00;;;0.70;;
5608;SDS011;2826;51.354;9.588;2022-12-31T04:53:54;1.33;;;0.80;;
5608;SDS011;2826;51.354;9.588;2022-12-31T04:56:21;0.90;;;0.80;;
5608;SDS011;2826;51.354;9.588;2022-12-31T04:58:49;3.40;;;0.90;;
5608;SDS011;2826;51.354;9.588;2022-12-31T05:01:16;3.20;;;0.87;;
5608;SDS011;2826;51.354;9.588;2022-12-31T05:03:43;0.90;;;0.70;;
5608;SDS011;2826;51.354;9.588;2022-12-31T05:06:11;11.40;;;0.93;;
5608;SDS011;2826;51.354;9.588;2022-12-31T05:08:40;4.53;;;0.83;;
5608;SDS011;2826;51.354;9.588;2022-12-31T05:11:07;1.37;;;0.90;;
5608;SDS011;2826;51.354;9.588;2022-12-31T05:13:35;1.27;;;0.80;;
5608;SDS011;2826;51.354;9.588;2022-12-31T05:16:04;1.10;;;1.00;;
5608;SDS011;2826;51.354;9.588;2022-12-31T05:18:31;1.50;;;0.90;;
5608;SDS011;2826;51.354;9.588;2022-12-31T05:20:58;1.57;;;0.87;;
5608;SDS011;2826;51.354;9.588;2022-12-31T05:23:25;0.97;;;0.87;;
5608;SDS011;2826;51.354;9.588;2022-12-31T05:25:52;1.47;;;0.90;;
5608;SDS011;2826;51.354;9.588;2022-12-31T05:28:19;0.80;;;0.80;;
5608;SDS011;2826;51.354;9.588;2022-12-31T05:30:46;2.10;;;0.80;;
5608;SDS011;2826;51.354;9.588;2022-12-31T05:33:15;1.00;;;0.90;;
5608;SDS011;2826;51.354;9.588;2022-12-31T05:35:42;1.20;;;0.90;;
5608;SDS011;2826;51.354;9.588;2022-12-31T05:38:08;1.00;;;0.90;;
5608;SDS011;2826;51.354;9.588;2022-12-31T05:40:35;1.20;;;1.10;;
5608;SDS011;2826;51.354;9.588;2022-12-31T05:43:02;1.00;;;0.90;;
5608;SDS011;2826;51.354;9.588;2022-12-31T05:45:29;4.20;;;1.50;;
5608;SDS011;2826;51.354;9.588;2022-12-31T05:47:56;1.57;;;1.20;;
5608;SDS011;2826;51.354;9.588;2022-12-31T05:50:24;2.43;;;1.30;;
5608;SDS011;2826;51.354;9.588;2022-12-31T05:52:54;2.40;;;0.90;;
5608;SDS011;2826;51.354;9.588;2022-12-31T05:55:21;2.23;;;1.10;;
5608;SDS011;2826;51.354;9.588;2022-12-31T05:57:48;6.50;;;1.53;;
5608;SDS011;2826;51.354;9.588;2022-12-31T06:00:18;1.30;;;1.10;;
5608;SDS011;2826;51.354;9.588;2022-12-31T06:02:44;4.40;;;1.00;;
5608;SDS011;2826;51.354;9.588;2022-12-31T06:05:11;2.90;;;1.60;;
5608;SDS011;2826;51.354;9.588;2022-12-31T06:07:43;2.60;;;1.20;;
5608;SDS011;2826;51.354;9.588;2022-12-31T06:10:09;1.40;;;1.10;;
5608;SDS011;2826;51.354;9.588;2022-12-31T06:12:36;1.27;;;1.17;;
5608;SDS011;2826;51.354;9.588;2022-12-31T06:15:04;1.30;;;1.20;;
5608;SDS011;2826;51.354;9.588;2022-12-31T06:17:31;6.90;;;1.50;;
5608;SDS011;2826;51.354;9.588;2022-12-31T06:19:58;1.40;;;1.30;;
5608;SDS011;2826;51.354;9.588;2022-12-31T06:22:24;2.00;;;1.57;;
5608;SDS011;2826;51.354;9.588;2022-12-31T06:24:53;4.70;;;1.07;;
5608;SDS011;2826;51.354;9.588;2022-12-31T06:27:20;1.20;;;1.10;;
5608;SDS011;2826;51.354;9.588;2022-12-31T06:29:47;2.40;;;1.00;;
5608;SDS011;2826;51.354;9.588;2022-12-31T06:32:15;1.27;;;1.17;;
5608;SDS011;2826;51.354;9.588;2022-12-31T06:34:42;3.80;;;1.57;;
5608;SDS011;2826;51.354;9.588;2022-12-31T06:37:09;1.73;;;1.50;;
5608;SDS011;2826;51.354;9.588;2022-12-31T06:39:35;2.50;;;1.47;;
5608;SDS011;2826;51.354;9.588;2022-12-31T06:42:03;4.60;;;1.20;;
5608;SDS011;2826;51.354;9.588;2022-12-31T06:44:30;1.27;;;1.17;;
5608;SDS011;2826;51.354;9.588;2022-12-31T06:46:57;2.03;;;1.20;;
5608;SDS011;2826;51.354;9.588;2022-12-31T06:49:24;2.80;;;1.00;;
5608;SDS011;2826;51.354;9.588;2022-12-31T06:51:51;1.83;;;1.30;;
5608;SDS011;2826;51.354;9.588;2022-12-31T06:54:18;1.30;;;1.20;;
5608;SDS011;2826;51.354;9.588;2022-12-31T06:56:45;1.70;;;1.40;;
5608;SDS011;2826;51.354;9.588;2022-12-31T06:59:19;2.80;;;1.30;;
5608;SDS011;2826;51.354;9.588;2022-12-31T07:01:56;1.30;;;1.20;;
5608;SDS011;2826;51.354;9.588;2022-12-31T07:04:38;1.80;;;1.17;;
5608;SDS011;2826;51.354;9.588;2022-12-31T07:07:19;1.47;;;1.30;;
5608;SDS011;2826;51.354;9.588;2022-12-31T07:09:52;1.20;;;1.10;;
5608;SDS011;2826;51.354;9.588;2022-12-31T07:12:33;2.90;;;1.30;;
5608;SDS011;2826;51.354;9.588;2022-12-31T07:15:10;2.63;;;1.10;;
5608;SDS011;2826;51.354;9.588;2022-12-31T07:17:43;2.03;;;1.30;;
5608;SDS011;2826;51.354;9.588;2022-12-31T07:20:19;1.50;;;1.40;;
5608;SDS011;2826;51.354;9.588;2022-12-31T07:22:46;4.53;;;1.63;;
5608;SDS011;2826;51.354;9.588;2022-12-31T07:25:14;1.33;;;1.23;;
5608;SDS011;2826;51.354;9.588;2022-12-31T07:27:48;1.37;;;0.90;;
5608;SDS011;2826;51.354;9.588;2022-12-31T07:30:30;1.63;;;1.30;;
5608;SDS011;2826;51.354;9.588;2022-12-31T07:33:09;1.20;;;1.10;;
5608;SDS011;2826;51.354;9.588;2022-12-31T07:35:48;2.70;;;1.10;;
5608;SDS011;2826;51.354;9.588;2022-12-31T07:38:27;1.40;;;1.30;;
5608;SDS011;2826;51.354;9.588;2022-12-31T07:41:03;1.57;;;1.07;;
5608;SDS011;2826;51.354;9.588;2022-12-31T07:43:35;2.60;;;1.10;;
5608;SDS011;2826;51.354;9.588;2022-12-31T07:46:14;1.20;;;1.10;;
5608;SDS011;2826;51.354;9.588;2022-12-31T07:48:45;2.10;;;1.20;;
5608;SDS011;2826;51.354;9.588;2022-12-31T07:51:12;2.43;;;1.40;;
5608;SDS011;2826;51.354;9.588;2022-12-31T07:53:39;1.97;;;1.23;;
5608;SDS011;2826;51.354;9.588;2022-12-31T07:56:06;4.93;;;1.10;;
5608;SDS011;2826;51.354;9.588;2022-12-31T07:58:41;5.90;;;1.33;;
5608;SDS011;2826;51.354;9.588;2022-12-31T08:01:21;1.77;;;1.00;;
5608;SDS011;2826;51.354;9.588;2022-12-31T08:03:59;1.27;;;1.17;;
5608;SDS011;2826;51.354;9.588;2022-12-31T08:06:31;1.73;;;1.13;;
5608;SDS011;2826;51.354;9.588;2022-12-31T08:09:03;1.10;;;1.00;;
5608;SDS011;2826;51.354;9.588;2022-12-31T08:11:37;1.93;;;1.10;;
5608;SDS011;2826;51.354;9.588;2022-12-31T08:14:10;2.20;;;1.10;;
5608;SDS011;2826;51.354;9.588;2022-12-31T08:16:40;3.93;;;1.57;;
5608;SDS011;2826;51.354;9.588;2022-12-31T08:19:07;2.80;;;1.20;;
5608;SDS011;2826;51.354;9.588;2022-12-31T08:21:50;2.70;;;1.30;;
5608;SDS011;2826;51.354;9.588;2022-12-31T08:24:33;1.40;;;1.20;;
5608;SDS011;2826;51.354;9.588;2022-12-31T08:27:09;1.70;;;1.57;;
5608;SDS011;2826;51.354;9.588;2022-12-31T08:29:47;1.80;;;1.20;;
5608;SDS011;2826;51.354;9.588;2022-12-31T08:32:27;2.80;;;1.10;;
5608;SDS011;2826;51.354;9.588;2022-12-31T08:35:03;2.67;;;1.20;;
5608;SDS011;2826;51.354;9.588;2022-12-31T08:37:38;1.83;;;0.90;;
5608;SDS011;2826;51.354;9.588;2022-12-31T08:40:13;2.90;;;1.30;;
5608;SDS011;2826;51.354;9.588;2022-12-31T08:42:54;3.17;;;1.10;;
5608;SDS011;2826;51.354;9.588;2022-12-31T08:45:38;2.30;;;1.20;;
5608;SDS011;2826;51.354;9.588;2022-12-31T08:48:10;1.57;;;1.00;;
5608;SDS011;2826;51.354;9.588;2022-12-31T08:50:50;1.83;;;1.47;;
5608;SDS011;2826;51.354;9.588;2022-12-31T08:53:18;2.80;;;1.10;;
5608;SDS011;2826;51.354;9.588;2022-12-31T08:55:45;2.93;;;1.13;;
5608;SDS011;2826;51.354;9.588;2022-12-31T08:58:17;2.23;;;1.37;;
5608;SDS011;2826;51.354;9.588;2022-12-31T09:00:53;12.60;;;1.30;;
5608;SDS011;2826;51.354;9.588;2022-12-31T09:03:38;3.57;;;1.33;;
5608;SDS011;2826;51.354;9.588;2022-12-31T09:06:18;1.37;;;1.20;;
5608;SDS011;2826;51.354;9.588;2022-12-31T09:08:53;1.10;;;1.00;;
5608;SDS011;2826;51.354;9.588;2022-12-31T09:11:27;1.53;;;1.10;;
5608;SDS011;2826;51.354;9.588;2022-12-31T09:14:00;1.47;;;1.13;;
5608;SDS011;2826;51.354;9.588;2022-12-31T09:16:35;3.13;;;1.50;;
5608;SDS011;2826;51.354;9.588;2022-12-31T09:19:13;2.20;;;1.73;;
5608;SDS011;2826;51.354;9.588;2022-12-31T09:21:40;3.70;;;1.60;;
5608;SDS011;2826;51.354;9.588;2022-12-31T09:24:09;2.10;;;1.40;;
5608;SDS011;2826;51.354;9.588;2022-12-31T09:26:41;10.10;;;1.50;;
5608;SDS011;2826;51.354;9.588;2022-12-31T09:29:19;2.27;;;1.70;;
5608;SDS011;2826;51.354;9.588;2022-12-31T09:31:53;4.90;;;1.80;;
5608;SDS011;2826;51.354;9.588;2022-12-31T09:34:28;1.60;;;1.50;;
5608;SDS011;2826;51.354;9.588;2022-12-31T09:37:02;2.40;;;1.53;;
5608;SDS011;2826;51.354;9.588;2022-12-31T09:39:38;3.67;;;1.70;;
5608;SDS011;2826;51.354;9.588;2022-12-31T09:42:16;4.07;;;1.80;;
5608;SDS011;2826;51.354;9.588;2022-12-31T09:45:12;3.77;;;1.70;;
5608;SDS011;2826;51.354;9.588;2022-12-31T09:48:07;5.03;;;1.93;;
5608;SDS011;2826;51.354;9.588;2022-12-31T09:51:10;2.60;;;1.80;;
5608;SDS011;2826;51.354;9.588;2022-12-31T09:53:56;2.17;;;1.60;;
5608;SDS011;2826;51.354;9.588;2022-12-31T09:56:44;3.73;;;1.50;;
5608;SDS011;2826;51.354;9.588;2022-12-31T09:59:16;2.60;;;1.70;;
5608;SDS011;2826;51.354;9.588;2022-12-31T10:01:49;1.50;;;1.20;;
5608;SDS011;2826;51.354;9.588;2022-12-31T10:04:29;3.33;;;1.40;;
5608;SDS011;2826;51.354;9.588;2022-12-31T10:07:10;2.50;;;1.53;;
5608;SDS011;2826;51.354;9.588;2022-12-31T10:09:47;1.90;;;1.40;;
5608;SDS011;2826;51.354;9.588;2022-12-31T10:12:39;2.40;;;1.40;;
5608;SDS011;2826;51.354;9.588;2022-12-31T10:18:22;1.70;;;1.30;;
5608;SDS011;2826;51.354;9.588;2022-12-31T10:21:10;4.13;;;1.40;;
5608;SDS011;2826;51.354;9.588;2022-12-31T10:23:50;1.63;;;1.23;;
5608;SDS011;2826;51.354;9.588;2022-12-31T10:26:35;1.50;;;1.40;;
5608;SDS011;2826;51.354;9.588;2022-12-31T10:29:20;9.30;;;1.73;;
5608;SDS011;2826;51.354;9.588;2022-12-31T10:31:54;4.83;;;1.50;;
5608;SDS011;2826;51.354;9.588;2022-12-31T10:34:37;7.10;;;1.60;;
5608;SDS011;2826;51.354;9.588;2022-12-31T10:37:14;4.77;;;1.70;;
5608;SDS011;2826;51.354;9.588;2022-12-31T10:39:46;2.97;;;1.40;;
5608;SDS011;2826;51.354;9.588;2022-12-31T10:42:34;3.80;;;1.50;;
5608;SDS011;2826;51.354;9.588;2022-12-31T10:45:38;2.70;;;1.50;;
5608;SDS011;2826;51.354;9.588;2022-12-31T10:48:28;2.63;;;1.70;;
5608;SDS011;2826;51.354;9.588;2022-12-31T10:51:20;1.83;;;1.40;;
5608;SDS011;2826;51.354;9.588;2022-12-31T11:00:11;2.60;;;1.63;;
5608;SDS011;2826;51.354;9.588;2022-12-31T11:05:49;2.30;;;1.30;;
5608;SDS011;2826;51.354;9.588;2022-12-31T11:11:52;1.87;;;1.70;;
5608;SDS011;2826;51.354;9.588;2022-12-31T11:14:48;3.03;;;1.53;;
5608;SDS011;2826;51.354;9.588;2022-12-31T11:17:27;1.80;;;1.70;;
5608;SDS011;2826;51.354;9.588;2022-12-31T11:20:09;4.40;;;1.43;;
5608;SDS011;2826;51.354;9.588;2022-12-31T11:22:53;3.00;;;1.37;;
5608;SDS011;2826;51.354;9.588;2022-12-31T11:25:32;1.93;;;1.40;;
5608;SDS011;2826;51.354;9.588;2022-12-31T11:28:17;1.50;;;1.40;;
5608;SDS011;2826;51.354;9.588;2022-12-31T11:34:05;2.20;;;1.47;;
5608;SDS011;2826;51.354;9.588;2022-12-31T11:36:46;4.20;;;1.30;;
5608;SDS011;2826;51.354;9.588;2022-12-31T11:39:33;3.87;;;1.30;;
5608;SDS011;2826;51.354;9.588;2022-12-31T11:42:10;1.30;;;1.13;;
5608;SDS011;2826;51.354;9.588;2022-12-31T11:44:45;2.33;;;1.30;;
5608;SDS011;2826;51.354;9.588;2022-12-31T11:50:21;2.63;;;1.40;;
5608;SDS011;2826;51.354;9.588;2022-12-31T11:52:56;3.17;;;1.30;;
5608;SDS011;2826;51.354;9.588;2022-12-31T11:55:46;3.50;;;1.30;;
5608;SDS011;2826;51.354;9.588;2022-12-31T11:58:22;2.07;;;1.10;;
5608;SDS011;2826;51.354;9.588;2022-12-31T12:00:53;5.33;;;1.60;;
5608;SDS011;2826;51.354;9.588;2022-12-31T12:03:23;2.80;;;1.33;;
5608;SDS011;2826;51.354;9.588;2022-12-31T12:05:50;2.60;;;1.40;;
5608;SDS011;2826;51.354;9.588;2022-12-31T12:08:17;5.60;;;2.60;;
5608;SDS011;2826;51.354;9.588;2022-12-31T12:10:45;2.00;;;1.23;;
5608;SDS011;2826;51.354;9.588;2022-12-31T12:13:18;3.57;;;1.37;;
5608;SDS011;2826;51.354;9.588;2022-12-31T12:15:48;3.40;;;1.60;;
5608;SDS011;2826;51.354;9.588;2022-12-31T12:18:25;3.77;;;2.23;;
5608;SDS011;2826;51.354;9.588;2022-12-31T12:21:00;1.70;;;1.30;;
5608;SDS011;2826;51.354;9.588;2022-12-31T12:23:28;4.27;;;1.07;;
5608;SDS011;2826;51.354;9.588;2022-12-31T12:25:55;2.70;;;1.50;;
5608;SDS011;2826;51.354;9.588;2022-12-31T12:28:22;2.17;;;1.30;;
5608;SDS011;2826;51.354;9.588;2022-12-31T12:30:56;2.77;;;1.50;;
5608;SDS011;2826;51.354;9.588;2022-12-31T12:33:27;1.60;;;1.10;;
5608;SDS011;2826;51.354;9.588;2022-12-31T12:36:05;1.50;;;1.40;;
5608;SDS011;2826;51.354;9.588;2022-12-31T12:38:33;2.23;;;1.40;;
5608;SDS011;2826;51.354;9.588;2022-12-31T12:41:00;3.33;;;1.37;;
5608;SDS011;2826;51.354;9.588;2022-12-31T12:43:29;2.87;;;1.30;;
5608;SDS011;2826;51.354;9.588;2022-12-31T12:45:59;2.97;;;1.53;;
5608;SDS011;2826;51.354;9.588;2022-12-31T12:48:32;4.10;;;1.37;;
5608;SDS011;2826;51.354;9.588;2022-12-31T12:51:06;5.27;;;1.30;;
5608;SDS011;2826;51.354;9.588;2022-12-31T12:53:45;2.60;;;1.37;;
5608;SDS011;2826;51.354;9.588;2022-12-31T12:56:22;3.93;;;1.83;;
5608;SDS011;2826;51.354;9.588;2022-12-31T12:59:10;2.40;;;1.13;;
5608;SDS011;2826;51.354;9.588;2022-12-31T13:01:51;3.47;;;1.40;;
5608;SDS011;2826;51.354;9.588;2022-12-31T13:04:39;1.40;;;1.30;;
5608;SDS011;2826;51.354;9.588;2022-12-31T13:07:20;3.20;;;1.70;;
5608;SDS011;2826;51.354;9.588;2022-12-31T13:10:00;3.57;;;1.50;;
5608;SDS011;2826;51.354;9.588;2022-12-31T13:12:48;4.27;;;1.67;;
5608;SDS011;2826;51.354;9.588;2022-12-31T13:15:21;3.53;;;1.30;;
5608;SDS011;2826;51.354;9.588;2022-12-31T13:18:00;1.40;;;1.20;;
5608;SDS011;2826;51.354;9.588;2022-12-31T13:20:38;2.83;;;1.40;;
5608;SDS011;2826;51.354;9.588;2022-12-31T13:23:14;1.50;;;1.20;;
5608;SDS011;2826;51.354;9.588;2022-12-31T13:25:51;5.73;;;1.50;;
5608;SDS011;2826;51.354;9.588;2022-12-31T13:28:25;5.40;;;1.70;;
5608;SDS011;2826;51.354;9.588;2022-12-31T13:30:54;2.33;;;1.40;;
5608;SDS011;2826;51.354;9.588;2022-12-31T13:33:25;9.13;;;1.67;;
5608;SDS011;2826;51.354;9.588;2022-12-31T13:35:57;3.57;;;1.43;;
5608;SDS011;2826;51.354;9.588;2022-12-31T13:38:28;2.60;;;1.53;;
5608;SDS011;2826;51.354;9.588;2022-12-31T13:40:59;2.80;;;1.40;;
5608;SDS011;2826;51.354;9.588;2022-12-31T13:43:33;2.50;;;1.50;;
5608;SDS011;2826;51.354;9.588;2022-12-31T13:46:09;3.30;;;2.23;;
5608;SDS011;2826;51.354;9.588;2022-12-31T13:48:43;3.00;;;1.50;;
5608;SDS011;2826;51.354;9.588;2022-12-31T13:51:20;5.87;;;2.00;;
5608;SDS011;2826;51.354;9.588;2022-12-31T13:53:53;4.17;;;1.73;;
5608;SDS011;2826;51.354;9.588;2022-12-31T13:56:28;4.50;;;1.70;;
5608;SDS011;2826;51.354;9.588;2022-12-31T13:58:59;3.03;;;2.00;;
5608;SDS011;2826;51.354;9.588;2022-12-31T14:01:31;3.60;;;1.50;;
5608;SDS011;2826;51.354;9.588;2022-12-31T14:04:06;1.73;;;1.40;;
5608;SDS011;2826;51.354;9.588;2022-12-31T14:06:37;5.60;;;1.50;;
5608;SDS011;2826;51.354;9.588;2022-12-31T14:09:13;2.43;;;2.00;;
5608;SDS011;2826;51.354;9.588;2022-12-31T14:11:54;2.63;;;1.80;;
5608;SDS011;2826;51.354;9.588;2022-12-31T14:14:34;6.93;;;3.87;;
5608;SDS011;2826;51.354;9.588;2022-12-31T14:17:11;6.20;;;2.70;;
5608;SDS011;2826;51.354;9.588;2022-12-31T14:19:50;9.53;;;1.83;;
5608;SDS011;2826;51.354;9.588;2022-12-31T14:22:25;3.97;;;1.77;;
5608;SDS011;2826;51.354;9.588;2022-12-31T14:24:59;3.97;;;2.10;;
5608;SDS011;2826;51.354;9.588;2022-12-31T14:27:30;1.70;;;1.50;;
5608;SDS011;2826;51.354;9.588;2022-12-31T14:30:00;1.77;;;1.60;;
5608;SDS011;2826;51.354;9.588;2022-12-31T14:32:37;2.43;;;1.60;;
5608;SDS011;2826;51.354;9.588;2022-12-31T14:35:29;6.60;;;1.67;;
5608;SDS011;2826;51.354;9.588;2022-12-31T14:38:06;6.57;;;2.00;;
5608;SDS011;2826;51.354;9.588;2022-12-31T14:40:47;3.17;;;1.63;;
5608;SDS011;2826;51.354;9.588;2022-12-31T14:43:24;3.23;;;1.83;;
5608;SDS011;2826;51.354;9.588;2022-12-31T14:46:03;6.93;;;1.53;;
5608;SDS011;2826;51.354;9.588;2022-12-31T14:48:41;2.23;;;1.70;;
5608;SDS011;2826;51.354;9.588;2022-12-31T14:51:15;1.73;;;1.63;;
5608;SDS011;2826;51.354;9.588;2022-12-31T14:53:51;4.50;;;1.90;;
5608;SDS011;2826;51.354;9.588;2022-12-31T14:56:29;2.93;;;2.07;;
5608;SDS011;2826;51.354;9.588;2022-12-31T14:59:23;3.60;;;1.73;;
5608;SDS011;2826;51.354;9.588;2022-12-31T15:01:52;2.17;;;1.70;;
5608;SDS011;2826;51.354;9.588;2022-12-31T15:04:32;11.20;;;2.33;;
5608;SDS011;2826;51.354;9.588;2022-12-31T15:07:09;3.60;;;2.10;;
5608;SDS011;2826;51.354;9.588;2022-12-31T15:12:41;4.73;;;1.60;;
5608;SDS011;2826;51.354;9.588;2022-12-31T15:15:19;5.00;;;2.10;;
5608;SDS011;2826;51.354;9.588;2022-12-31T15:18:01;4.33;;;1.97;;
5608;SDS011;2826;51.354;9.588;2022-12-31T15:20:51;4.00;;;2.30;;
5608;SDS011;2826;51.354;9.588;2022-12-31T15:23:30;2.77;;;2.00;;
5608;SDS011;2826;51.354;9.588;2022-12-31T15:26:24;5.37;;;2.10;;
5608;SDS011;2826;51.354;9.588;2022-12-31T15:28:56;6.10;;;2.07;;
5608;SDS011;2826;51.354;9.588;2022-12-31T15:31:25;4.77;;;1.93;;
5608;SDS011;2826;51.354;9.588;2022-12-31T15:33:57;2.63;;;1.90;;
5608;SDS011;2826;51.354;9.588;2022-12-31T15:36:27;1.77;;;1.50;;
5608;SDS011;2826;51.354;9.588;2022-12-31T15:39:04;2.33;;;2.00;;
5608;SDS011;2826;51.354;9.588;2022-12-31T15:41:37;2.37;;;1.77;;
5608;SDS011;2826;51.354;9.588;2022-12-31T15:44:07;3.27;;;2.10;;
5608;SDS011;2826;51.354;9.588;2022-12-31T15:46:41;2.43;;;2.10;;
5608;SDS011;2826;51.354;9.588;2022-12-31T15:49:09;3.30;;;2.63;;
5608;SDS011;2826;51.354;9.588;2022-12-31T15:51:42;13.70;;;2.30;;
5608;SDS011;2826;51.354;9.588;2022-12-31T15:54:15;6.60;;;2.00;;
5608;SDS011;2826;51.354;9.588;2022-12-31T15:56:50;2.87;;;2.03;;
5608;SDS011;2826;51.354;9.588;2022-12-31T15:59:19;4.60;;;2.07;;
5608;SDS011;2826;51.354;9.588;2022-12-31T16:01:47;3.13;;;1.97;;
5608;SDS011;2826;51.354;9.588;2022-12-31T16:04:15;6.33;;;2.47;;
5608;SDS011;2826;51.354;9.588;2022-12-31T16:06:45;2.70;;;2.23;;
5608;SDS011;2826;51.354;9.588;2022-12-31T16:09:18;3.57;;;1.90;;
5608;SDS011;2826;51.354;9.588;2022-12-31T16:11:47;4.77;;;2.47;;
5608;SDS011;2826;51.354;9.588;2022-12-31T16:14:19;2.17;;;1.80;;
5608;SDS011;2826;51.354;9.588;2022-12-31T16:16:52;7.17;;;2.30;;
5608;SDS011;2826;51.354;9.588;2022-12-31T16:19:29;5.50;;;2.47;;